Groton City, New York
Current Conditions -  °F | °C
As of 11:56 AM on Saturday 22 Nov 2014 (Local Time) from KITH Reporting Station
Broken Clouds Broken Clouds  
Wind Chill: 31°   Ceiling: 6000
Heat Index: 39°   Visibility: 10mi
Dew Point:   Wind: 14mph
Humidity: 27%   Direction: 200°SSW
Pressure: 30.14"   Gusts: NA
Location:  42.5874°N, 76.3904°W
Report Text: KITH 221656Z 20012KT 10SM SCT047 BKN060 04/M14 A3014 RMK AO2 T00381138 PRESFR SLP222
Loading
Personal Weather Stations






























Interactive Weather Map New forecast layout! Learn more

10-Day Weather Forecast

Advertisements
Track Severe Weather on mobile